createdAt,value
2023-06-12T00:00:37.486Z,100503.03
2023-06-12T00:01:43.960Z,100510.41
2023-06-12T00:02:49.218Z,100510.75
2023-06-12T00:03:58.821Z,100509.69
2023-06-12T00:05:06.052Z,100505.88
2023-06-12T00:06:12.839Z,100509.41
2023-06-12T00:07:19.065Z,100506.69
2023-06-12T00:08:25.593Z,100503.94
2023-06-12T00:09:30.906Z,100515.22
2023-06-12T00:10:37.401Z,100513.31
2023-06-12T00:11:44.819Z,100513.06
2023-06-12T00:12:50.109Z,100516.13
2023-06-12T00:13:56.840Z,100504.94
2023-06-12T00:15:02.208Z,100515.88
2023-06-12T00:16:10.353Z,100496.75
2023-06-12T00:17:15.357Z,100500.56
2023-06-12T00:18:22.728Z,100516.69
2023-06-12T00:19:28.026Z,100511.22
2023-06-12T00:20:34.341Z,100510.97
2023-06-12T00:21:39.653Z,100515.94
2023-06-12T00:22:46.354Z,100526.63
2023-06-12T00:23:51.543Z,100519.06
2023-06-12T00:24:57.839Z,100521.53
2023-06-12T00:26:02.914Z,100525.66
2023-06-12T00:27:09.711Z,100521.84
2023-06-12T00:28:14.826Z,100530.88
2023-06-12T00:29:21.114Z,100537.41
2023-06-12T00:30:26.244Z,100549.16
2023-06-12T00:31:34.321Z,100546.19
2023-06-12T00:32:39.469Z,100541.31
2023-06-12T00:33:46.230Z,100546.50
2023-06-12T00:34:51.303Z,100547.34
2023-06-12T00:35:57.886Z,100551.75
2023-06-12T00:37:02.944Z,100540.56
2023-06-12T00:38:09.385Z,100547.41
2023-06-12T00:39:14.395Z,100557.28
2023-06-12T00:40:21.074Z,100558.94
2023-06-12T00:41:26.117Z,100564.97
2023-06-12T00:42:35.638Z,100551.03
2023-06-12T00:43:40.863Z,100550.81
2023-06-12T00:44:47.229Z,100556.03
2023-06-12T00:45:53.625Z,100562.88
2023-06-12T00:47:00.453Z,100559.59
2023-06-12T00:48:07.115Z,100563.13
2023-06-12T00:49:12.325Z,100562.88
2023-06-12T00:50:19.001Z,100562.88
2023-06-12T00:51:24.131Z,100560.75
2023-06-12T00:52:31.795Z,100567.88
2023-06-12T00:53:37.020Z,100565.69
2023-06-12T00:54:44.465Z,100561.88
2023-06-12T00:55:50.652Z,100562.69
2023-06-12T00:56:55.667Z,100567.94
2023-06-12T00:58:02.251Z,100576.44
2023-06-12T00:59:07.320Z,100573.72
2023-06-12T01:00:15.129Z,100573.47
2023-06-12T01:01:27.916Z,100573.22
2023-06-12T01:02:34.908Z,100573.47
2023-06-12T01:03:41.558Z,100573.72
2023-06-12T01:04:46.630Z,100577.28
2023-06-12T01:05:53.201Z,100579.53
2023-06-12T01:07:00.899Z,100577.59
2023-06-12T01:08:18.513Z,100576.25
2023-06-12T01:09:32.919Z,100581.25
2023-06-12T01:10:44.741Z,100585.63
2023-06-12T01:11:51.780Z,100590.00
2023-06-12T01:12:57.016Z,100587.88
2023-06-12T01:14:04.712Z,100586.53
2023-06-12T01:15:10.702Z,100585.22
2023-06-12T01:16:17.020Z,100592.88
2023-06-12T01:17:22.056Z,100595.16
2023-06-12T01:18:32.137Z,100588.63
2023-06-12T01:19:37.890Z,100588.34
2023-06-12T01:20:44.746Z,100587.84
2023-06-12T01:21:52.474Z,100577.75
2023-06-12T01:23:00.840Z,100577.75
2023-06-12T01:24:28.757Z,100580.56
2023-06-12T01:26:07.508Z,100582.19
2023-06-12T01:27:25.215Z,100585.50
2023-06-12T01:28:47.765Z,100574.28
2023-06-12T01:30:27.549Z,100574.06
2023-06-12T01:31:38.174Z,100577.34
2023-06-12T01:32:47.276Z,100568.06
2023-06-12T01:33:57.490Z,100568.88
2023-06-12T01:35:06.428Z,100573.31
2023-06-12T01:36:13.665Z,100576.88
2023-06-12T01:37:25.365Z,100574.13
2023-06-12T01:38:33.349Z,100574.13
2023-06-12T01:39:43.305Z,100572.22
2023-06-12T01:40:49.404Z,100579.59
2023-06-12T01:41:56.123Z,100579.59
2023-06-12T01:43:01.133Z,100577.91
2023-06-12T01:44:13.734Z,100576.59
2023-06-12T01:45:18.760Z,100580.97
2023-06-12T01:46:25.493Z,100580.16
2023-06-12T01:47:30.528Z,100579.91
2023-06-12T01:48:38.421Z,100581.53
2023-06-12T01:49:43.424Z,100581.81
2023-06-12T01:50:49.908Z,100584.53
2023-06-12T01:51:54.841Z,100583.47
2023-06-12T01:53:01.156Z,100585.97
2023-06-12T01:54:06.385Z,100582.97
2023-06-12T01:55:13.373Z,100578.56
2023-06-12T01:56:19.951Z,100580.22
2023-06-12T01:57:26.262Z,100578.31
2023-06-12T01:58:31.341Z,100585.44
2023-06-12T01:59:38.201Z,100587.09
2023-06-12T02:00:43.533Z,100580.53
2023-06-12T02:01:49.888Z,100591.25
2023-06-12T02:02:57.112Z,100590.16
2023-06-12T02:04:05.510Z,100588.50
2023-06-12T02:05:11.176Z,100588.25
2023-06-12T02:06:18.270Z,100592.34
2023-06-12T02:07:23.510Z,100589.63
2023-06-12T02:08:29.760Z,100583.09
2023-06-12T02:09:34.845Z,100583.91
2023-06-12T02:10:41.203Z,100584.75
2023-06-12T02:11:46.364Z,100586.38
2023-06-12T02:12:52.619Z,100588.03
2023-06-12T02:13:58.201Z,100588.63
2023-06-12T02:15:04.715Z,100593.56
2023-06-12T02:16:10.734Z,100598.56
2023-06-12T02:17:20.298Z,100601.59
2023-06-12T02:18:25.501Z,100598.59
2023-06-12T02:19:35.273Z,100599.16
2023-06-12T02:20:41.772Z,100597.63
2023-06-12T02:21:47.121Z,100599.00
2023-06-12T02:22:53.610Z,100596.81
2023-06-12T02:23:58.799Z,100595.50
2023-06-12T02:25:06.087Z,100592.50
2023-06-12T02:26:11.345Z,100596.38
2023-06-12T02:27:17.842Z,100590.38
2023-06-12T02:28:23.089Z,100593.44
2023-06-12T02:29:29.658Z,100591.00
2023-06-12T02:30:34.883Z,100587.47
2023-06-12T02:31:41.483Z,100591.34
2023-06-12T02:32:46.854Z,100589.75
2023-06-12T02:33:53.301Z,100585.41
2023-06-12T02:35:03.280Z,100582.72
2023-06-12T02:36:11.040Z,100584.66
2023-06-12T02:37:16.720Z,100590.47
2023-06-12T02:38:23.189Z,100588.28
2023-06-12T02:39:28.558Z,100581.50
2023-06-12T02:40:35.159Z,100576.84
2023-06-12T02:41:40.566Z,100587.81
2023-06-12T02:42:47.144Z,100585.06
2023-06-12T02:43:52.576Z,100576.84
2023-06-12T02:44:59.030Z,100582.31
2023-06-12T02:46:04.259Z,100575.75
2023-06-12T02:47:11.331Z,100576.31
2023-06-12T02:48:16.592Z,100577.94
2023-06-12T02:49:23.193Z,100575.81
2023-06-12T02:50:31.373Z,100584.56
2023-06-12T02:51:36.666Z,100581.84
2023-06-12T02:52:43.752Z,100582.38
2023-06-12T02:53:49.009Z,100579.97
2023-06-12T02:54:55.521Z,100578.03
2023-06-12T02:56:00.851Z,100573.16
2023-06-12T02:57:07.548Z,100577.25
2023-06-12T02:58:16.120Z,100570.19
2023-06-12T02:59:24.515Z,100578.13
2023-06-12T03:00:31.101Z,100580.09
2023-06-12T03:01:36.769Z,100579.53
2023-06-12T03:02:45.304Z,100576.28
2023-06-12T03:03:51.105Z,100579.31
2023-06-12T03:04:57.735Z,100570.56
2023-06-12T03:06:04.941Z,100572.22
2023-06-12T03:07:11.503Z,100568.97
2023-06-12T03:08:19.128Z,100557.44
2023-06-12T03:09:26.291Z,100570.06
2023-06-12T03:10:31.632Z,100568.72
2023-06-12T03:11:38.142Z,100568.19
2023-06-12T03:12:43.361Z,100559.94
2023-06-12T03:13:50.638Z,100557.00
2023-06-12T03:14:56.260Z,100556.72
2023-06-12T03:16:02.678Z,100558.91
2023-06-12T03:17:08.518Z,100552.09
2023-06-12T03:18:15.032Z,100555.38
2023-06-12T03:19:20.510Z,100548.78
2023-06-12T03:20:28.161Z,100550.47
2023-06-12T03:21:35.030Z,100542.25
2023-06-12T03:22:41.551Z,100548.56
2023-06-12T03:23:46.737Z,100551.84
2023-06-12T03:24:56.149Z,100552.66
2023-06-12T03:26:01.352Z,100545.25
2023-06-12T03:27:08.589Z,100550.47
2023-06-12T03:28:13.887Z,100550.47
2023-06-12T03:29:20.572Z,100546.66
2023-06-12T03:30:25.893Z,100545.56
2023-06-12T03:31:32.584Z,100547.22
2023-06-12T03:32:38.038Z,100542.81
2023-06-12T03:33:44.744Z,100537.88
2023-06-12T03:34:50.059Z,100542.53
2023-06-12T03:35:56.599Z,100538.69
2023-06-12T03:37:04.919Z,100548.84
2023-06-12T03:38:10.251Z,100540.34
2023-06-12T03:39:16.879Z,100549.44
2023-06-12T03:40:22.262Z,100540.34
2023-06-12T03:41:29.741Z,100546.69
2023-06-12T03:42:35.062Z,100549.97
2023-06-12T03:43:41.811Z,100543.66
2023-06-12T03:44:47.244Z,100545.59
2023-06-12T03:45:53.854Z,100542.56
2023-06-12T03:47:00.430Z,100540.38
2023-06-12T03:48:06.332Z,100544.78
2023-06-12T03:49:12.985Z,100535.47
2023-06-12T03:50:19.665Z,100535.19
2023-06-12T03:51:26.107Z,100533.28
2023-06-12T03:52:33.218Z,100535.72
2023-06-12T03:53:39.849Z,100535.22
2023-06-12T03:54:45.045Z,100534.66
2023-06-12T03:55:51.750Z,100537.16
2023-06-12T03:56:56.986Z,100529.47
2023-06-12T03:58:03.615Z,100532.50
2023-06-12T03:59:08.965Z,100536.34
2023-06-12T04:00:16.257Z,100536.09
2023-06-12T04:01:21.512Z,100536.91
2023-06-12T04:02:28.361Z,100530.06
2023-06-12T04:03:37.187Z,100530.59
2023-06-12T04:04:42.593Z,100536.41
2023-06-12T04:05:49.755Z,100539.69
2023-06-12T04:06:55.714Z,100531.47
2023-06-12T04:08:04.064Z,100532.03
2023-06-12T04:09:10.488Z,100532.59
2023-06-12T04:10:16.983Z,100526.56
2023-06-12T04:11:22.254Z,100522.72
2023-06-12T04:12:29.080Z,100526.59
2023-06-12T04:13:34.372Z,100531.50
2023-06-12T04:14:41.559Z,100528.25
2023-06-12T04:15:47.302Z,100518.91
2023-06-12T04:16:54.002Z,100519.44
2023-06-12T04:18:00.308Z,100514.78
2023-06-12T04:19:07.133Z,100511.78
2023-06-12T04:20:14.505Z,100505.72
2023-06-12T04:21:22.733Z,100506.56
2023-06-12T04:22:30.612Z,100513.69
2023-06-12T04:23:40.000Z,100514.53
2023-06-12T04:24:46.672Z,100512.34
2023-06-12T04:25:53.238Z,100500.25
2023-06-12T04:27:03.492Z,100496.97
2023-06-12T04:28:10.698Z,100512.34
2023-06-12T04:29:17.774Z,100499.97
2023-06-12T04:30:24.171Z,100506.88
2023-06-12T04:31:31.385Z,100520.88
2023-06-12T04:32:36.996Z,100512.06
2023-06-12T04:33:43.692Z,100507.94
2023-06-12T04:34:48.876Z,100509.31
2023-06-12T04:35:55.350Z,100502.44
2023-06-12T04:37:00.587Z,100506.56
2023-06-12T04:38:07.736Z,100502.72
2023-06-12T04:39:16.406Z,100498.03
2023-06-12T04:40:27.708Z,100502.44
2023-06-12T04:41:35.411Z,100496.38
2023-06-12T04:42:42.010Z,100498.84
2023-06-12T04:43:47.301Z,100488.97
2023-06-12T04:44:53.895Z,100497.22
2023-06-12T04:45:59.172Z,100491.13
2023-06-12T04:47:07.609Z,100492.53
2023-06-12T04:48:13.882Z,100495.28
2023-06-12T04:49:20.506Z,100483.72
2023-06-12T04:50:26.309Z,100487.88
2023-06-12T04:51:32.952Z,100485.13
2023-06-12T04:52:38.188Z,100492.25
2023-06-12T04:53:46.366Z,100491.16
2023-06-12T04:54:54.865Z,100481.53
2023-06-12T04:56:03.348Z,100482.06
2023-06-12T04:57:10.947Z,100487.00
2023-06-12T04:58:18.425Z,100482.06
2023-06-12T04:59:24.955Z,100484.22
2023-06-12T05:00:31.582Z,100483.69
2023-06-12T05:01:37.063Z,100487.53
2023-06-12T05:02:43.833Z,100487.25
2023-06-12T05:03:49.234Z,100484.50
2023-06-12T05:04:55.886Z,100481.47
2023-06-12T05:06:01.199Z,100482.56
2023-06-12T05:07:09.012Z,100477.59
2023-06-12T05:08:14.687Z,100483.09
2023-06-12T05:09:22.292Z,100477.34
2023-06-12T05:10:29.326Z,100471.84
2023-06-12T05:11:35.941Z,100462.72
2023-06-12T05:12:41.299Z,100461.34
2023-06-12T05:13:50.952Z,100461.06
2023-06-12T05:14:56.379Z,100458.03
2023-06-12T05:16:02.935Z,100460.50
2023-06-12T05:17:08.682Z,100461.56
2023-06-12T05:18:15.229Z,100450.84
2023-06-12T05:19:20.469Z,100455.78
2023-06-12T05:20:27.249Z,100451.63
2023-06-12T05:21:32.575Z,100453.88
2023-06-12T05:22:40.223Z,100446.13
2023-06-12T05:23:46.907Z,100445.84
2023-06-12T05:24:52.280Z,100441.44
2023-06-12T05:26:00.733Z,100448.06
2023-06-12T05:27:06.440Z,100443.09
2023-06-12T05:28:13.977Z,100448.06
2023-06-12T05:29:19.668Z,100446.69
2023-06-12T05:30:26.245Z,100440.66
2023-06-12T05:31:31.684Z,100440.16
2023-06-12T05:32:38.599Z,100442.38
2023-06-12T05:33:44.236Z,100441.84
2023-06-12T05:34:51.046Z,100451.22
2023-06-12T05:35:56.414Z,100444.91
2023-06-12T05:37:03.086Z,100461.72
2023-06-12T05:38:09.393Z,100466.97
2023-06-12T05:39:16.387Z,100473.31
2023-06-12T05:40:21.744Z,100473.06
2023-06-12T05:41:30.075Z,100474.44
2023-06-12T05:42:36.847Z,100477.97
2023-06-12T05:43:42.640Z,100478.50
2023-06-12T05:44:49.324Z,100479.28
2023-06-12T05:45:54.596Z,100475.38
2023-06-12T05:47:01.155Z,100472.59
2023-06-12T05:48:07.447Z,100466.53
2023-06-12T05:49:14.370Z,100460.94
2023-06-12T05:50:21.039Z,100466.63
2023-06-12T05:51:26.607Z,100470.16
2023-06-12T05:52:33.208Z,100464.34
2023-06-12T05:53:38.750Z,100459.34
2023-06-12T05:54:45.366Z,100457.88
2023-06-12T05:55:50.690Z,100455.88
2023-06-12T05:56:58.979Z,100451.19
2023-06-12T05:58:06.475Z,100456.66
2023-06-12T05:59:13.618Z,100458.28
2023-06-12T06:00:20.199Z,100449.75
2023-06-12T06:01:27.831Z,100440.72
2023-06-12T06:02:33.709Z,100442.38
2023-06-12T06:03:45.158Z,100440.72
2023-06-12T06:04:56.279Z,100424.56
2023-06-12T06:06:01.738Z,100424.25
2023-06-12T06:07:17.658Z,100419.59
2023-06-12T06:08:25.126Z,100413.03
2023-06-12T06:09:30.410Z,100413.28
2023-06-12T06:10:36.984Z,100408.66
2023-06-12T06:11:43.549Z,100402.63
2023-06-12T06:12:50.540Z,100403.44
2023-06-12T06:13:57.936Z,100405.34
2023-06-12T06:15:04.528Z,100399.34
2023-06-12T06:16:11.340Z,100399.38
2023-06-12T06:17:16.820Z,100400.00
2023-06-12T06:18:23.585Z,100398.66
2023-06-12T06:19:29.022Z,100405.00
2023-06-12T06:20:36.115Z,100404.78
2023-06-12T06:21:41.438Z,100401.53
2023-06-12T06:22:48.026Z,100401.84
2023-06-12T06:23:53.504Z,100397.22
2023-06-12T06:25:00.204Z,100397.78
2023-06-12T06:26:08.273Z,100392.63
2023-06-12T06:27:14.106Z,100392.94
2023-06-12T06:28:22.335Z,100400.34
2023-06-12T06:29:28.927Z,100387.22
2023-06-12T06:30:35.652Z,100388.09
2023-06-12T06:31:41.030Z,100385.38
2023-06-12T06:32:49.217Z,100381.56
2023-06-12T06:33:55.917Z,100385.97
2023-06-12T06:35:01.224Z,100378.81
2023-06-12T06:36:08.478Z,100383.50
2023-06-12T06:37:13.783Z,100376.66
2023-06-12T06:38:23.727Z,100378.03
2023-06-12T06:39:29.091Z,100379.41
2023-06-12T06:40:35.862Z,100374.47
2023-06-12T06:41:42.539Z,100378.84
2023-06-12T06:42:49.004Z,100378.03
2023-06-12T06:43:57.284Z,100374.19
2023-06-12T06:45:02.701Z,100378.31
2023-06-12T06:46:09.513Z,100366.78
2023-06-12T06:47:15.026Z,100375.00
2023-06-12T06:48:21.786Z,100375.00
2023-06-12T06:49:28.829Z,100369.22
2023-06-12T06:50:36.380Z,100368.41
2023-06-12T06:51:43.010Z,100379.13
2023-06-12T06:52:48.313Z,100369.22
2023-06-12T06:53:55.083Z,100372.81
2023-06-12T06:55:01.603Z,100370.34
2023-06-12T06:56:08.501Z,100377.47
2023-06-12T06:57:14.734Z,100366.19
2023-06-12T06:58:21.649Z,100364.84
2023-06-12T06:59:30.019Z,100361.25
2023-06-12T07:00:36.697Z,100365.38
2023-06-12T07:01:43.481Z,100367.28
2023-06-12T07:02:48.815Z,100359.88
2023-06-12T07:03:55.576Z,100367.03
2023-06-12T07:05:00.907Z,100359.31
2023-06-12T07:06:07.578Z,100369.72
2023-06-12T07:07:12.809Z,100362.00
2023-06-12T07:08:19.679Z,100366.09
2023-06-12T07:09:27.349Z,100358.38
2023-06-12T07:10:33.971Z,100353.97
2023-06-12T07:11:39.244Z,100357.53
2023-06-12T07:12:46.166Z,100361.09
2023-06-12T07:13:53.658Z,100358.06
2023-06-12T07:15:01.063Z,100354.19
2023-06-12T07:16:07.721Z,100353.09
2023-06-12T07:17:12.936Z,100357.78
2023-06-12T07:18:19.633Z,100349.78
2023-06-12T07:19:24.777Z,100356.13
2023-06-12T07:20:31.145Z,100352.53
2023-06-12T07:21:38.222Z,100350.63
2023-06-12T07:22:43.358Z,100348.75
2023-06-12T07:23:49.894Z,100339.09
2023-06-12T07:24:56.552Z,100354.50
2023-06-12T07:26:14.628Z,100353.13
2023-06-12T07:27:30.111Z,100351.72
2023-06-12T07:28:36.945Z,100348.16
2023-06-12T07:29:42.081Z,100354.47
2023-06-12T07:30:50.371Z,100358.34
2023-06-12T07:31:55.585Z,100359.16
2023-06-12T07:33:02.204Z,100353.41
2023-06-12T07:34:08.087Z,100353.13
2023-06-12T07:35:15.055Z,100350.38
2023-06-12T07:36:21.744Z,100343.78
2023-06-12T07:37:26.913Z,100346.28
2023-06-12T07:38:33.714Z,100349.03
2023-06-12T07:39:39.142Z,100345.44
2023-06-12T07:40:45.527Z,100347.38
2023-06-12T07:41:52.170Z,100346.00
2023-06-12T07:42:58.835Z,100336.94
2023-06-12T07:44:04.000Z,100338.03
2023-06-12T07:45:12.082Z,100330.31
2023-06-12T07:46:19.695Z,100336.34
2023-06-12T07:47:26.156Z,100329.22
2023-06-12T07:48:31.450Z,100324.84
2023-06-12T07:49:37.918Z,100322.63
2023-06-12T07:50:45.005Z,100320.13
2023-06-12T07:51:53.958Z,100316.56
2023-06-12T07:53:00.769Z,100316.25
2023-06-12T07:54:07.288Z,100306.03
2023-06-12T07:55:13.066Z,100302.38
2023-06-12T07:56:20.469Z,100299.59
2023-06-12T07:57:27.026Z,100298.44
2023-06-12T07:58:33.504Z,100293.25
2023-06-12T07:59:39.926Z,100288.59
2023-06-12T08:00:46.525Z,100285.88
2023-06-12T08:01:55.399Z,100278.72
2023-06-12T08:03:04.544Z,100283.72
2023-06-12T08:04:18.342Z,100288.94
2023-06-12T08:05:23.535Z,100273.03
2023-06-12T08:06:29.910Z,100269.78
2023-06-12T08:07:35.796Z,100279.69
2023-06-12T08:08:46.138Z,100275.03
2023-06-12T08:09:52.885Z,100264.34
2023-06-12T08:11:00.164Z,100269.84
2023-06-12T08:12:06.761Z,100263.81
2023-06-12T08:13:13.710Z,100261.88
2023-06-12T08:14:20.256Z,100276.44
2023-06-12T08:15:26.787Z,100264.03
2023-06-12T08:16:34.151Z,100267.09
2023-06-12T08:17:44.768Z,100258.81
2023-06-12T08:18:51.369Z,100246.44
2023-06-12T08:19:57.864Z,100241.75
2023-06-12T08:21:04.437Z,100238.69
2023-06-12T08:22:11.621Z,100242.78
2023-06-12T08:23:16.704Z,100239.41
2023-06-12T08:24:23.329Z,100244.53
2023-06-12T08:25:29.859Z,100242.53
2023-06-12T08:26:34.986Z,100248.00
2023-06-12T08:27:41.337Z,100250.16
2023-06-12T08:28:46.772Z,100254.56
2023-06-12T08:29:53.135Z,100253.16
2023-06-12T08:31:00.403Z,100254.19
2023-06-12T08:32:06.962Z,100242.84
2023-06-12T08:33:13.939Z,100243.56
2023-06-12T08:34:20.413Z,100242.84
2023-06-12T08:35:26.624Z,100239.44
2023-06-12T08:36:31.837Z,100231.88
2023-06-12T08:37:38.353Z,100228.25
2023-06-12T08:38:43.569Z,100241.50
2023-06-12T08:39:50.294Z,100226.91
2023-06-12T08:40:57.482Z,100231.47
2023-06-12T08:42:07.523Z,100225.38
2023-06-12T08:43:14.230Z,100230.59
2023-06-12T08:44:20.957Z,100237.94
2023-06-12T08:45:30.870Z,100233.00
2023-06-12T08:46:37.498Z,100233.88
2023-06-12T08:47:44.280Z,100219.03
2023-06-12T08:48:53.112Z,100230.41
2023-06-12T08:49:59.654Z,100225.75
2023-06-12T08:51:05.829Z,100219.50
2023-06-12T08:52:12.846Z,100224.50
2023-06-12T08:53:18.594Z,100214.69
2023-06-12T08:54:27.964Z,100218.34
2023-06-12T08:55:35.136Z,100204.63
2023-06-12T08:56:43.192Z,100220.34
2023-06-12T08:57:50.187Z,100209.88
2023-06-12T08:58:55.441Z,100214.06
2023-06-12T09:00:01.894Z,100213.81
2023-06-12T09:01:07.894Z,100216.84
2023-06-12T09:02:15.594Z,100220.16
2023-06-12T09:03:22.403Z,100222.69
2023-06-12T09:04:39.940Z,100222.72
2023-06-12T09:05:48.319Z,100227.09
2023-06-12T09:06:54.992Z,100235.91
2023-06-12T09:08:02.992Z,100226.31
2023-06-12T09:09:09.640Z,100226.38
2023-06-12T09:10:15.441Z,100220.38
2023-06-12T09:11:22.091Z,100214.09
2023-06-12T09:12:28.866Z,100218.22
2023-06-12T09:13:45.479Z,100214.69
2023-06-12T09:14:53.516Z,100210.81
2023-06-12T09:15:59.136Z,100214.69
2023-06-12T09:17:05.746Z,100216.91
2023-06-12T09:18:15.175Z,100213.91
2023-06-12T09:19:20.554Z,100216.13
2023-06-12T09:20:42.472Z,100216.47
2023-06-12T09:21:52.621Z,100214.25
2023-06-12T09:22:59.349Z,100207.69
2023-06-12T09:24:05.827Z,100201.66
2023-06-12T09:25:12.095Z,100202.25
2023-06-12T09:26:19.523Z,100205.28
2023-06-12T09:27:24.899Z,100201.69
2023-06-12T09:28:33.996Z,100200.59
2023-06-12T09:29:41.654Z,100201.94
2023-06-12T09:30:47.131Z,100209.91
2023-06-12T09:31:55.934Z,100215.41
2023-06-12T09:33:05.644Z,100203.06
2023-06-12T09:34:11.406Z,100204.44
2023-06-12T09:35:17.812Z,100208.31
2023-06-12T09:36:24.876Z,100196.50
2023-06-12T09:37:31.782Z,100205.06
2023-06-12T09:38:38.019Z,100207.53
2023-06-12T09:39:44.531Z,100215.78
2023-06-12T09:40:59.120Z,100210.88
2023-06-12T09:42:06.823Z,100219.94
2023-06-12T09:43:11.967Z,100216.38
2023-06-12T09:44:18.482Z,100219.13
2023-06-12T09:45:25.858Z,100222.69
2023-06-12T09:46:33.307Z,100221.28
2023-06-12T09:47:43.728Z,100225.69
2023-06-12T09:48:50.242Z,100225.41
2023-06-12T09:49:55.395Z,100225.94
2023-06-12T09:51:02.360Z,100233.06
2023-06-12T09:52:11.041Z,100224.81
2023-06-12T09:53:19.679Z,100216.88
2023-06-12T09:54:27.344Z,100218.28
2023-06-12T09:55:34.479Z,100219.91
2023-06-12T09:56:42.193Z,100207.28
2023-06-12T09:57:49.635Z,100210.03
2023-06-12T09:58:56.349Z,100218.28
2023-06-12T10:00:03.654Z,100204.53
2023-06-12T10:01:11.047Z,100202.84
2023-06-12T10:02:19.879Z,100209.22
2023-06-12T10:03:28.779Z,100213.31
2023-06-12T10:04:40.925Z,100208.34
2023-06-12T10:05:51.397Z,100206.97
2023-06-12T10:07:03.730Z,100213.28
2023-06-12T10:08:12.830Z,100221.00
2023-06-12T10:09:19.578Z,100216.59
2023-06-12T10:10:26.709Z,100206.47
2023-06-12T10:11:33.804Z,100210.84
2023-06-12T10:12:39.609Z,100221.53
2023-06-12T10:13:46.120Z,100219.09
2023-06-12T10:14:52.393Z,100207.81
2023-06-12T10:15:59.086Z,100222.66
2023-06-12T10:17:05.048Z,100221.84
2023-06-12T10:18:12.395Z,100216.06
2023-06-12T10:19:20.130Z,100223.78
2023-06-12T10:20:28.844Z,100224.91
2023-06-12T10:21:35.946Z,100224.34
2023-06-12T10:22:42.784Z,100221.06
2023-06-12T10:23:51.040Z,100217.78
2023-06-12T10:24:56.572Z,100232.06
2023-06-12T10:26:03.486Z,100228.25
2023-06-12T10:27:09.504Z,100229.63
2023-06-12T10:28:16.155Z,100230.47
2023-06-12T10:29:34.129Z,100218.66
2023-06-12T10:30:41.051Z,100220.59
2023-06-12T10:31:47.627Z,100220.03
2023-06-12T10:32:54.124Z,100221.69
2023-06-12T10:34:14.844Z,100222.75
2023-06-12T10:35:33.075Z,100225.81
2023-06-12T10:36:45.274Z,100223.06
2023-06-12T10:37:51.806Z,100227.22
2023-06-12T10:39:07.015Z,100229.94
2023-06-12T10:40:24.087Z,100226.09
2023-06-12T10:41:41.352Z,100228.25
2023-06-12T10:42:52.125Z,100227.19
2023-06-12T10:44:00.715Z,100234.31
2023-06-12T10:45:09.160Z,100229.13
2023-06-12T10:46:16.258Z,100231.88
2023-06-12T10:47:22.685Z,100232.38
2023-06-12T10:48:30.091Z,100233.22
2023-06-12T10:49:59.214Z,100232.09
2023-06-12T10:51:06.210Z,100232.63
2023-06-12T10:52:24.395Z,100237.03
2023-06-12T10:53:33.300Z,100230.44
2023-06-12T10:54:40.255Z,100232.06
2023-06-12T10:55:47.153Z,100229.03
2023-06-12T10:57:05.766Z,100227.69
2023-06-12T10:58:14.994Z,100222.50
2023-06-12T10:59:21.459Z,100219.47
2023-06-12T11:00:31.027Z,100220.03
2023-06-12T11:01:44.088Z,100213.72
2023-06-12T11:02:50.145Z,100210.69
2023-06-12T11:03:56.966Z,100220.28
2023-06-12T11:05:07.006Z,100213.69
2023-06-12T11:06:18.821Z,100217.00
2023-06-12T11:07:24.269Z,100218.34
2023-06-12T11:08:33.116Z,100214.47
2023-06-12T11:09:46.992Z,100215.03
2023-06-12T11:10:53.392Z,100215.56
2023-06-12T11:11:58.598Z,100214.16
2023-06-12T11:13:05.371Z,100222.16
2023-06-12T11:14:10.698Z,100221.03
2023-06-12T11:15:17.220Z,100225.44
2023-06-12T11:16:27.257Z,100223.22
2023-06-12T11:17:32.481Z,100227.09
2023-06-12T11:18:38.869Z,100216.91
2023-06-12T11:19:44.093Z,100222.69
2023-06-12T11:20:56.389Z,100218.06
2023-06-12T11:22:02.937Z,100223.53
2023-06-12T11:23:08.154Z,100224.66
2023-06-12T11:24:15.096Z,100222.72
2023-06-12T11:25:22.179Z,100211.50
2023-06-12T11:26:29.840Z,100224.94
2023-06-12T11:27:35.033Z,100221.09
2023-06-12T11:28:41.502Z,100216.69
2023-06-12T11:30:01.981Z,100211.75
2023-06-12T11:31:14.091Z,100210.69
2023-06-12T11:32:20.547Z,100215.09
2023-06-12T11:33:27.316Z,100219.78
2023-06-12T11:34:40.901Z,100226.09
2023-06-12T11:35:50.151Z,100215.41
2023-06-12T11:36:55.437Z,100213.72
2023-06-12T11:40:33.474Z,100205.53
2023-06-12T11:41:38.747Z,100197.59
2023-06-12T11:42:46.120Z,100202.78
2023-06-12T11:43:52.469Z,100207.47
2023-06-12T11:44:58.115Z,100204.16
2023-06-12T11:46:06.947Z,100213.25
2023-06-12T11:49:31.487Z,100219.31
2023-06-12T11:50:38.768Z,100229.19
2023-06-12T11:51:43.896Z,100233.84
2023-06-12T11:52:50.554Z,100231.41
2023-06-12T11:53:55.681Z,100229.75
2023-06-12T11:57:22.532Z,100231.41
2023-06-12T11:58:36.818Z,100228.94
2023-06-12T11:59:44.082Z,100231.69
2023-06-12T12:00:51.848Z,100234.97
2023-06-12T12:02:02.224Z,100237.19
2023-06-12T12:03:12.438Z,100241.88
2023-06-12T12:04:19.872Z,100241.31
2023-06-12T12:05:27.658Z,100249.00
2023-06-12T12:06:33.877Z,100250.09
2023-06-12T12:07:41.844Z,100260.28
2023-06-12T12:08:47.315Z,100256.97
2023-06-12T12:09:53.923Z,100256.97
2023-06-12T12:11:00.443Z,100250.94
2023-06-12T12:12:12.966Z,100260.00
2023-06-12T12:13:19.681Z,100259.47
2023-06-12T12:14:26.851Z,100258.31
2023-06-12T12:15:34.205Z,100252.03
2023-06-12T12:16:43.034Z,100258.06
2023-06-12T12:17:51.960Z,100251.75
2023-06-12T12:18:57.788Z,100254.78
2023-06-12T12:20:07.675Z,100260.81
2023-06-12T12:21:18.604Z,100261.06
2023-06-12T12:22:23.713Z,100265.75
2023-06-12T12:23:30.350Z,100264.63
2023-06-12T12:24:39.389Z,100270.13
2023-06-12T12:25:46.886Z,100268.50
2023-06-12T12:26:53.717Z,100271.22
2023-06-12T12:28:04.934Z,100277.81
2023-06-12T12:29:10.363Z,100284.97
2023-06-12T12:30:20.954Z,100291.56
2023-06-12T12:31:26.290Z,100288.81
2023-06-12T12:32:32.631Z,100292.66
2023-06-12T12:33:39.098Z,100296.75
2023-06-12T12:34:44.143Z,100295.38
2023-06-12T12:35:50.504Z,100298.41
2023-06-12T12:36:55.573Z,100311.31
2023-06-12T12:38:02.917Z,100305.00
2023-06-12T12:39:09.507Z,100307.47
2023-06-12T12:40:16.733Z,100311.84
2023-06-12T12:41:23.253Z,100311.31
2023-06-12T12:42:28.807Z,100312.13
2023-06-12T12:43:37.088Z,100318.44
2023-06-12T12:44:42.356Z,100315.16
2023-06-12T12:45:48.803Z,100325.03
2023-06-12T12:46:54.186Z,100328.06
2023-06-12T12:48:02.516Z,100335.44
2023-06-12T12:49:09.244Z,100330.50
2023-06-12T12:50:21.367Z,100343.13
2023-06-12T12:51:29.320Z,100337.09
2023-06-12T12:52:38.502Z,100345.31
2023-06-12T12:53:46.346Z,100346.44
2023-06-12T12:54:53.498Z,100357.66
2023-06-12T12:56:00.819Z,100357.66